Time;durP1;ratioP1;P1;durP2;ratioP2;P2;SDS_P1;SDS_P2;PMS_P1;PMS_P2;Temp;Humidity;BMP_temperature;BMP_pressure;BME280_temperature;BME280_humidity;BME280_pressure;Samples;Min_cycle;Max_cycle;Signal;HPM_P1;HPM_P2
2024/02/11 00:00:45;;;;;;;;;;;;;;;26.38;39.56;91712.06;5084881;28;9030;-37
2024/02/11 00:03:15;;;;;;;;;;;;;;;26.34;39.66;91704.19;5069240;28;7329;-37
2024/02/11 00:05:41;;;;;;;;;;;;;;;26.39;39.03;91710.72;5061632;28;8243;-37
2024/02/11 00:08:10;;;;;;;;;;;;;;;26.41;38.83;91705.38;5058645;28;7360;-37
2024/02/11 00:10:36;;;;;;;;;;;;;;;26.40;38.93;91718.44;5057507;28;7250;-37
2024/02/11 00:13:02;;;;;;;;;;;;;;;26.41;38.92;91705.38;5051192;28;9401;-37
2024/02/11 00:15:31;;;;;;;;;;;;;;;26.39;39.12;91710.72;5053522;28;7329;-37
2024/02/11 00:17:57;;;;;;;;;;;;;;;26.35;39.31;91713.19;5084961;28;6983;-37
2024/02/11 00:20:27;;;;;;;;;;;;;;;26.35;39.02;91718.72;5058950;28;7470;-37
2024/02/11 00:23:22;;;;;;;;;;;;;;;26.36;39.56;91722.94;5059142;28;7372;-37
2024/02/11 00:25:53;;;;;;;;;;;;;;;26.36;38.85;91725.69;5030378;28;9708;-37
2024/02/11 00:28:22;;;;;;;;;;;;;;;26.36;38.66;91722.94;5032215;28;9058;-37
2024/02/11 00:30:49;;;;;;;;;;;;;;;26.38;39.37;91725.84;5014863;28;7233;-37
2024/02/11 00:33:20;;;;;;;;;;;;;;;26.37;39.34;91735.41;5028333;28;7366;-37
2024/02/11 00:35:47;;;;;;;;;;;;;;;26.36;38.63;91733.97;5029161;28;6991;-37
2024/02/11 00:38:15;;;;;;;;;;;;;;;26.37;39.01;91746.41;5012992;28;7043;-37
2024/02/11 00:40:49;;;;;;;;;;;;;;;26.39;38.71;91754.81;5031256;28;7448;-37
2024/02/11 00:43:16;;;;;;;;;;;;;;;26.37;38.80;91760.94;5030348;28;7936;-36
2024/02/11 00:46:04;;;;;;;;;;;;;;;26.40;38.64;91756.28;5034265;28;7082;-37
2024/02/11 00:49:00;;;;;;;;;;;;;;;26.39;38.89;91763.09;5000015;28;9229;-37
2024/02/11 00:51:35;;;;;;;;;;;;;;;26.39;38.96;91765.84;5014831;28;7180;-37
2024/02/11 00:54:03;;;;;;;;;;;;;;;26.37;38.64;91773.97;5028616;28;7294;-37
2024/02/11 00:56:59;;;;;;;;;;;;;;;26.35;38.87;91760.06;5031278;28;7302;-37
2024/02/11 00:59:34;;;;;;;;;;;;;;;26.36;39.20;91780.81;4972576;28;8942;-37
2024/02/11 01:02:03;;;;;;;;;;;;;;;26.34;38.91;91784.13;4995680;28;6993;-37
2024/02/11 01:05:01;;;;;;;;;;;;;;;26.34;38.57;91777.91;5018943;28;7257;-37
2024/02/11 01:07:40;;;;;;;;;;;;;;;26.36;39.20;91784.25;4920296;29;9446;-37
2024/02/11 01:10:43;;;;;;;;;;;;;;;26.37;38.40;91785.00;4918198;29;7241;-37
2024/02/11 01:13:13;;;;;;;;;;;;;;;26.33;38.77;91790.22;4915162;29;8394;-37
2024/02/11 01:15:39;;;;;;;;;;;;;;;26.32;39.01;91797.75;4914911;29;7190;-37
2024/02/11 01:18:06;;;;;;;;;;;;;;;26.31;38.99;91801.81;4914909;29;9054;-37
2024/02/11 01:20:50;;;;;;;;;;;;;;;26.32;38.54;91816.34;4924920;29;7328;-37
2024/02/11 01:23:28;;;;;;;;;;;;;;;26.27;38.93;91815.31;4924585;29;8843;-38
2024/02/11 01:26:24;;;;;;;;;;;;;;;26.31;38.25;91823.88;4921764;29;7282;-37
2024/02/11 01:29:04;;;;;;;;;;;;;;;26.29;39.05;91828.50;4890712;29;7252;-37
2024/02/11 01:31:42;;;;;;;;;;;;;;;26.29;38.39;91834.75;4873208;29;9115;-37
2024/02/11 01:34:42;;;;;;;;;;;;;;;26.30;38.68;91847.22;4882747;29;7042;-37
2024/02/11 01:37:54;;;;;;;;;;;;;;;26.30;38.60;91849.22;4878531;29;7425;-37
2024/02/11 01:40:32;;;;;;;;;;;;;;;26.32;38.22;91854.91;4882484;29;7225;-37
2024/02/11 01:43:00;;;;;;;;;;;;;;;26.29;38.67;91845.03;4906837;29;9183;-37
2024/02/11 01:46:16;;;;;;;;;;;;;;;26.30;38.39;91857.50;4937462;29;9085;-37
2024/02/11 01:48:51;;;;;;;;;;;;;;;26.27;38.70;91853.88;4926975;29;9070;-37
2024/02/11 01:51:29;;;;;;;;;;;;;;;26.28;38.56;91863.59;4937558;29;7237;-37
2024/02/11 01:54:10;;;;;;;;;;;;;;;26.28;38.72;91865.63;4946610;28;6987;-37
2024/02/11 01:57:07;;;;;;;;;;;;;;;26.28;39.13;91871.13;4937084;29;7731;-37
2024/02/11 02:00:05;;;;;;;;;;;;;;;26.27;39.03;91878.69;4884863;29;7245;-37
2024/02/11 02:02:47;;;;;;;;;;;;;;;26.28;38.61;91871.13;4880786;29;7322;-37
2024/02/11 02:05:24;;;;;;;;;;;;;;;26.26;39.10;91885.47;4900822;28;7270;-37
2024/02/11 02:08:03;;;;;;;;;;;;;;;26.26;39.00;91885.47;4932119;29;7231;-37
2024/02/11 02:10:31;;;;;;;;;;;;;;;26.25;39.03;91900.56;4953280;28;9110;-37
2024/02/11 02:13:00;;;;;;;;;;;;;;;26.24;38.67;91898.38;4982153;28;6994;-37
2024/02/11 02:15:30;;;;;;;;;;;;;;;26.25;38.64;91903.34;4997680;28;7282;-37
2024/02/11 02:17:56;;;;;;;;;;;;;;;26.25;39.09;91902.59;5005024;28;9605;-37
2024/02/11 02:20:24;;;;;;;;;;;;;;;26.26;39.01;91913.03;4981927;28;9241;-37
2024/02/11 02:22:53;;;;;;;;;;;;;;;26.25;38.34;91916.38;4998337;28;9320;-37
2024/02/11 02:25:18;;;;;;;;;;;;;;;26.24;38.93;91915.66;4995246;28;7015;-37
2024/02/11 02:27:53;;;;;;;;;;;;;;;26.23;38.23;91913.47;4993640;28;8712;-37
2024/02/11 02:30:19;;;;;;;;;;;;;;;26.25;38.89;91913.63;5007107;28;7087;-37
2024/02/11 02:32:58;;;;;;;;;;;;;;;26.25;38.97;91919.13;5010372;28;8753;-37
2024/02/11 02:35:26;;;;;;;;;;;;;;;26.24;39.08;91914.91;5008048;28;7441;-37
2024/02/11 02:37:54;;;;;;;;;;;;;;;26.24;39.22;91915.66;5058947;28;7221;-37
2024/02/11 02:40:24;;;;;;;;;;;;;;;26.26;38.77;91926.09;5060592;28;7321;-37
2024/02/11 02:43:26;;;;;;;;;;;;;;;26.26;38.76;91917.81;5085000;28;7632;-37
2024/02/11 02:46:10;;;;;;;;;;;;;;;26.22;38.83;91914.75;5002487;28;7249;-37
2024/02/11 02:49:09;;;;;;;;;;;;;;;26.24;38.94;91926.66;5018482;28;7286;-37
2024/02/11 02:51:39;;;;;;;;;;;;;;;26.23;38.63;91924.50;5019277;28;7526;-37
2024/02/11 02:54:15;;;;;;;;;;;;;;;26.23;38.98;91930.00;5016051;28;8775;-37
2024/02/11 02:56:47;;;;;;;;;;;;;;;26.24;38.61;91936.94;4997766;28;9083;-37
2024/02/11 02:59:16;;;;;;;;;;;;;;;26.24;39.05;91925.94;5013644;28;7342;-37
2024/02/11 03:01:43;;;;;;;;;;;;;;;26.22;39.21;91925.78;4995107;28;7219;-37
2024/02/11 03:04:14;;;;;;;;;;;;;;;26.24;38.84;91931.44;5022100;28;9006;-37
2024/02/11 03:06:40;;;;;;;;;;;;;;;26.25;39.00;91935.66;4980084;28;6974;-37
2024/02/11 03:09:10;;;;;;;;;;;;;;;26.24;38.51;91937.69;5003795;28;7279;-37
2024/02/11 03:11:41;;;;;;;;;;;;;;;26.23;38.53;91936.22;5003070;28;7215;-37
2024/02/11 03:14:12;;;;;;;;;;;;;;;26.23;38.80;91936.22;5026815;28;8845;-37
2024/02/11 03:16:38;;;;;;;;;;;;;;;26.25;38.53;91938.41;5010669;28;7365;-37
2024/02/11 03:19:06;;;;;;;;;;;;;;;26.25;38.74;91938.41;5009255;28;7133;-37
2024/02/11 03:21:38;;;;;;;;;;;;;;;26.22;39.05;91940.28;5050340;28;7001;-39
2024/02/11 03:24:14;;;;;;;;;;;;;;;26.24;38.71;91943.19;5066286;28;7083;-40
2024/02/11 03:26:46;;;;;;;;;;;;;;;26.23;38.62;91946.53;5068522;28;8757;-39
2024/02/11 03:29:14;;;;;;;;;;;;;;;26.23;38.54;91950.00;5057722;28;7068;-41
2024/02/11 03:31:46;;;;;;;;;;;;;;;26.22;38.58;91947.81;5066499;28;9086;-39
2024/02/11 03:34:15;;;;;;;;;;;;;;;26.22;38.42;91956.81;5073554;28;7006;-42
2024/02/11 03:36:42;;;;;;;;;;;;;;;26.22;38.38;91956.09;5074714;28;7027;-40
2024/02/11 03:39:10;;;;;;;;;;;;;;;26.23;39.04;91960.31;5073037;28;7546;-40
2024/02/11 03:41:36;;;;;;;;;;;;;;;26.25;38.27;91960.47;5068015;28;9565;-39
2024/02/11 03:44:06;;;;;;;;;;;;;;;26.25;38.89;91963.22;5080606;28;9574;-39
2024/02/11 03:46:34;;;;;;;;;;;;;;;26.23;38.31;91966.53;5069638;28;7238;-40
2024/02/11 03:49:03;;;;;;;;;;;;;;;26.23;38.70;91971.34;5074458;28;7255;-40
2024/02/11 03:51:31;;;;;;;;;;;;;;;26.25;38.23;91974.25;5079112;28;6930;-40
2024/02/11 03:54:38;;;;;;;;;;;;;;;26.22;38.65;91976.09;5071085;28;9081;-40
2024/02/11 03:57:17;;;;;;;;;;;;;;;26.20;38.32;91975.22;4984448;28;8890;-39
2024/02/11 03:59:50;;;;;;;;;;;;;;;26.21;38.51;91976.69;5002768;28;10159;-41
2024/02/11 04:02:26;;;;;;;;;;;;;;;26.23;38.51;91972.03;4995602;28;7393;-39
2024/02/11 04:04:54;;;;;;;;;;;;;;;26.24;38.74;91981.03;4980671;28;7010;-40
2024/02/11 04:07:22;;;;;;;;;;;;;;;26.22;38.71;91972.63;5005459;28;7259;-40
2024/02/11 04:09:49;;;;;;;;;;;;;;;26.21;38.78;91982.19;5004839;28;8930;-40
2024/02/11 04:12:15;;;;;;;;;;;;;;;26.19;38.82;91980.00;5002716;28;7224;-40
2024/02/11 04:14:45;;;;;;;;;;;;;;;26.20;38.83;91981.47;5009987;28;8580;-42
2024/02/11 04:17:20;;;;;;;;;;;;;;;26.19;38.56;91980.00;4984470;28;7434;-40
2024/02/11 04:19:58;;;;;;;;;;;;;;;26.21;38.43;91984.97;4988299;28;7147;-40
2024/02/11 04:23:19;;;;;;;;;;;;;;;26.22;38.48;91987.13;4974868;28;7281;-40
2024/02/11 04:25:47;;;;;;;;;;;;;;;26.22;38.62;91992.66;4935316;29;7063;-39
2024/02/11 04:28:15;;;;;;;;;;;;;;;26.21;38.89;91993.22;4934637;28;7875;-41
2024/02/11 04:30:44;;;;;;;;;;;;;;;26.21;38.58;91993.22;4933912;28;7260;-40
2024/02/11 04:33:20;;;;;;;;;;;;;;;26.19;38.67;91984.81;4969819;28;8463;-38
2024/02/11 04:35:47;;;;;;;;;;;;;;;26.19;38.83;91996.53;4962850;28;7972;-38
2024/02/11 04:38:46;;;;;;;;;;;;;;;26.19;38.34;91990.31;4956379;28;9079;-38
2024/02/11 04:41:23;;;;;;;;;;;;;;;26.19;38.91;91993.06;4973314;28;7060;-38
2024/02/11 04:43:51;;;;;;;;;;;;;;;26.20;38.67;91989.00;4974288;28;8056;-39
2024/02/11 04:46:29;;;;;;;;;;;;;;;26.19;38.77;91990.31;4972792;28;9267;-38
2024/02/11 04:49:18;;;;;;;;;;;;;;;26.20;38.91;92000.03;4962005;28;9073;-39
2024/02/11 04:52:01;;;;;;;;;;;;;;;26.22;38.32;91997.41;4957945;28;7102;-39
2024/02/11 04:54:47;;;;;;;;;;;;;;;26.21;38.28;91993.22;4971338;28;9404;-39
2024/02/11 04:57:23;;;;;;;;;;;;;;;26.20;38.55;91992.50;4972195;28;9090;-38
2024/02/11 04:59:51;;;;;;;;;;;;;;;26.17;38.81;91983.34;5016397;28;8708;-38
2024/02/11 05:02:30;;;;;;;;;;;;;;;26.20;38.49;91998.00;5074205;28;9294;-39
2024/02/11 05:04:59;;;;;;;;;;;;;;;26.19;38.19;91988.25;5046230;28;9209;-42
2024/02/11 05:07:34;;;;;;;;;;;;;;;26.21;38.87;91993.22;5057525;28;7288;-38
2024/02/11 05:10:00;;;;;;;;;;;;;;;26.20;38.13;91997.25;5073156;28;7346;-39
2024/02/11 05:12:26;;;;;;;;;;;;;;;26.21;38.16;91998.72;5075440;28;7226;-38
2024/02/11 05:14:51;;;;;;;;;;;;;;;26.19;38.87;91999.28;5056239;28;7449;-38
2024/02/11 05:17:17;;;;;;;;;;;;;;;26.18;38.64;92000.59;5076718;28;7336;-38
2024/02/11 05:19:45;;;;;;;;;;;;;;;26.20;38.64;91998.00;5077564;28;7261;-40
2024/02/11 05:22:15;;;;;;;;;;;;;;;26.19;38.85;92006.84;5059044;28;9046;-39
2024/02/11 05:25:04;;;;;;;;;;;;;;;26.18;38.17;92008.88;5070500;28;9178;-39
2024/02/11 05:27:44;;;;;;;;;;;;;;;26.21;38.10;92009.75;5068990;28;8474;-39
2024/02/11 05:30:11;;;;;;;;;;;;;;;26.16;38.79;92008.72;5058234;28;7487;-38
2024/02/11 05:32:57;;;;;;;;;;;;;;;26.18;38.66;92011.63;5073351;28;7415;-38
2024/02/11 05:35:40;;;;;;;;;;;;;;;26.16;38.61;92019.72;5068617;28;7427;-39
2024/02/11 05:38:08;;;;;;;;;;;;;;;26.16;38.90;92012.19;5082712;28;7258;-39
2024/02/11 05:40:42;;;;;;;;;;;;;;;26.15;38.91;92004.50;5088669;28;6986;-38
2024/02/11 05:43:15;;;;;;;;;;;;;;;26.13;38.11;92005.06;5091409;28;8716;-37
2024/02/11 05:45:44;;;;;;;;;;;;;;;26.12;38.78;92009.09;5074806;28;8153;-37
2024/02/11 05:48:28;;;;;;;;;;;;;;;26.15;38.21;92010.72;5075905;28;8858;-37
2024/02/11 05:50:57;;;;;;;;;;;;;;;26.13;38.97;92007.09;5053232;28;7248;-37
2024/02/11 05:53:23;;;;;;;;;;;;;;;26.13;38.47;92013.34;5083645;28;6979;-37
2024/02/11 05:55:58;;;;;;;;;;;;;;;26.15;38.70;92016.25;5063688;28;7042;-37
2024/02/11 05:58:26;;;;;;;;;;;;;;;26.15;38.22;92012.75;5058302;28;7611;-37
2024/02/11 06:00:52;;;;;;;;;;;;;;;26.15;38.76;92015.50;5081171;28;9153;-37
2024/02/11 06:03:20;;;;;;;;;;;;;;;26.15;38.62;92021.75;5064697;28;7274;-37
2024/02/11 06:06:06;;;;;;;;;;;;;;;26.16;38.23;92025.25;5076334;28;7279;-37
2024/02/11 06:08:33;;;;;;;;;;;;;;;26.17;38.72;92030.16;5039473;28;8723;-37
2024/02/11 06:11:03;;;;;;;;;;;;;;;26.19;38.89;92034.41;5076753;28;7157;-37
2024/02/11 06:13:30;;;;;;;;;;;;;;;26.19;38.68;92035.09;5065181;28;7247;-37
2024/02/11 06:15:56;;;;;;;;;;;;;;;26.15;38.38;92043.78;5075269;28;7947;-37
2024/02/11 06:18:23;;;;;;;;;;;;;;;26.13;38.99;92042.91;5075035;28;8194;-37
2024/02/11 06:20:53;;;;;;;;;;;;;;;26.15;38.91;92046.56;5081477;28;8850;-37
2024/02/11 06:23:41;;;;;;;;;;;;;;;26.14;38.95;92050.59;5086603;28;7538;-37
2024/02/11 06:26:26;;;;;;;;;;;;;;;26.15;38.51;92051.31;5075445;28;7184;-38
2024/02/11 06:29:04;;;;;;;;;;;;;;;26.16;38.46;92059.00;5067742;28;7338;-37
2024/02/11 06:31:34;;;;;;;;;;;;;;;26.14;38.64;92058.84;5081427;28;7163;-37
2024/02/11 06:34:26;;;;;;;;;;;;;;;26.12;38.44;92063.50;5077911;28;7575;-37
2024/02/11 06:37:21;;;;;;;;;;;;;;;26.11;38.48;92065.53;5056462;28;7090;-36
2024/02/11 06:39:53;;;;;;;;;;;;;;;26.10;39.28;92060.56;5056564;28;7291;-37
2024/02/11 06:42:20;;;;;;;;;;;;;;;26.10;38.82;92066.81;5093106;28;9073;-37
2024/02/11 06:44:48;;;;;;;;;;;;;;;26.10;39.14;92069.56;5057761;28;7024;-37
2024/02/11 06:47:20;;;;;;;;;;;;;;;26.11;38.84;92065.53;5063086;28;6998;-37
2024/02/11 06:49:51;;;;;;;;;;;;;;;26.13;39.29;92078.72;5057709;28;7026;-37
2024/02/11 06:52:20;;;;;;;;;;;;;;;26.16;39.18;92077.59;5058369;28;7238;-37
2024/02/11 06:54:56;;;;;;;;;;;;;;;26.15;38.72;92078.88;5077352;28;9366;-37
2024/02/11 06:57:22;;;;;;;;;;;;;;;26.17;38.72;92093.53;5075483;28;8307;-37
2024/02/11 06:59:59;;;;;;;;;;;;;;;26.19;39.07;92097.78;5070863;28;9221;-37
2024/02/11 07:02:28;;;;;;;;;;;;;;;26.11;39.05;92095.81;5039997;28;8818;-37
2024/02/11 07:04:56;;;;;;;;;;;;;;;26.11;38.86;92092.34;5050829;28;9044;-37
2024/02/11 07:07:29;;;;;;;;;;;;;;;26.10;39.06;92088.84;5066223;28;7262;-37
2024/02/11 07:09:55;;;;;;;;;;;;;;;26.11;39.10;92097.84;5055141;28;9453;-37
2024/02/11 07:12:20;;;;;;;;;;;;;;;26.10;38.81;92104.63;5062274;28;7049;-52
2024/02/11 07:14:46;;;;;;;;;;;;;;;26.08;38.98;92102.47;5041436;28;9076;-54
2024/02/11 07:17:14;;;;;;;;;;;;;;;26.03;39.86;92097.88;5072173;28;7095;-52
2024/02/11 07:19:49;;;;;;;;;;;;;;;26.08;38.96;92107.97;5066317;28;9202;-52
2024/02/11 07:22:16;;;;;;;;;;;;;;;26.05;39.43;92109.09;5084142;28;8963;-53
2024/02/11 07:25:16;;;;;;;;;;;;;;;26.03;39.84;92119.94;5057265;28;7246;-53
2024/02/11 07:27:54;;;;;;;;;;;;;;;26.04;39.37;92115.88;5000254;28;7233;-54
2024/02/11 07:30:31;;;;;;;;;;;;;;;26.04;39.38;92132.41;5017990;28;7552;-54
2024/02/11 07:33:26;;;;;;;;;;;;;;;25.99;40.17;92127.88;5023435;28;7330;-53
2024/02/11 07:36:13;;;;;;;;;;;;;;;25.96;39.67;92133.81;4961666;28;9117;-54
2024/02/11 07:38:41;;;;;;;;;;;;;;;25.96;39.61;92139.31;4974003;28;7378;-53
2024/02/11 07:41:07;;;;;;;;;;;;;;;25.94;40.17;92136.41;4971768;28;7095;-54
2024/02/11 07:43:36;;;;;;;;;;;;;;;25.92;39.96;92139.72;4957272;28;7286;-54
2024/02/11 07:46:02;;;;;;;;;;;;;;;25.90;39.71;92147.09;4970633;28;7120;-54
2024/02/11 07:48:30;;;;;;;;;;;;;;;25.87;39.90;92148.94;4954687;28;7246;-54
2024/02/11 07:50:58;;;;;;;;;;;;;;;25.90;40.24;92152.59;4970786;28;9149;-54
2024/02/11 07:53:27;;;;;;;;;;;;;;;25.90;40.55;92153.31;4973500;28;7274;-54
2024/02/11 07:55:53;;;;;;;;;;;;;;;25.88;40.96;92150.38;4972203;28;9140;-55
2024/02/11 07:58:19;;;;;;;;;;;;;;;25.87;40.65;92159.97;4975294;28;9656;-54
2024/02/11 08:00:45;;;;;;;;;;;;;;;25.86;40.95;92164.00;4954617;28;7069;-54
2024/02/11 08:03:14;;;;;;;;;;;;;;;25.90;40.44;92167.06;4973378;28;9098;-53
2024/02/11 08:05:41;;;;;;;;;;;;;;;25.91;40.36;92174.06;4984435;28;6861;-54
2024/02/11 08:08:09;;;;;;;;;;;;;;;25.89;41.29;92162.88;5002751;28;7061;-53
2024/02/11 08:10:35;;;;;;;;;;;;;;;25.88;40.76;92161.41;5010627;28;6984;-54
2024/02/11 08:13:03;;;;;;;;;;;;;;;25.89;41.44;92165.63;5035203;28;6997;-54
2024/02/11 08:15:29;;;;;;;;;;;;;;;25.89;40.68;92156.63;5058730;28;8840;-55
2024/02/11 08:18:00;;;;;;;;;;;;;;;25.90;41.05;92163.63;5071738;28;9027;-58
2024/02/11 08:20:29;;;;;;;;;;;;;;;25.91;41.45;92165.06;5073258;28;9043;-53
2024/02/11 08:22:56;;;;;;;;;;;;;;;25.92;41.02;92158.25;5073972;28;7632;-42
2024/02/11 08:25:28;;;;;;;;;;;;;;;25.92;41.07;92178.28;5063345;28;8736;-42
2024/02/11 08:28:02;;;;;;;;;;;;;;;25.95;40.63;92177.13;5061616;28;8172;-43
2024/02/11 08:30:32;;;;;;;;;;;;;;;25.98;40.42;92170.50;5082558;28;8030;-42
2024/02/11 08:33:02;;;;;;;;;;;;;;;25.97;40.30;92174.53;5034943;28;7254;-42
2024/02/11 08:35:29;;;;;;;;;;;;;;;26.00;40.58;92180.94;5068460;28;7111;-42
2024/02/11 08:38:06;;;;;;;;;;;;;;;26.00;40.20;92173.41;5062689;28;6876;-44
2024/02/11 08:40:52;;;;;;;;;;;;;;;26.02;40.29;92176.34;5049264;28;9457;-43
2024/02/11 08:43:22;;;;;;;;;;;;;;;26.03;40.78;92172.28;5092132;28;8764;-43
2024/02/11 08:45:49;;;;;;;;;;;;;;;25.99;40.73;92177.47;5067270;28;8754;-42
2024/02/11 08:48:50;;;;;;;;;;;;;;;26.02;40.20;92175.59;5062508;28;7338;-42
2024/02/11 08:51:28;;;;;;;;;;;;;;;26.03;40.44;92188.09;5011968;28;9050;-43
2024/02/11 08:53:54;;;;;;;;;;;;;;;26.05;40.89;92191.75;5007087;28;7818;-43
2024/02/11 08:56:54;;;;;;;;;;;;;;;26.03;40.58;92188.78;5003586;28;9431;-45
2024/02/11 08:59:31;;;;;;;;;;;;;;;26.02;40.46;92197.63;4908538;29;9203;-43
2024/02/11 09:02:01;;;;;;;;;;;;;;;26.06;40.58;92198.69;4898315;29;9314;-42
2024/02/11 09:04:28;;;;;;;;;;;;;;;26.08;40.41;92196.13;4909983;29;7017;-42
2024/02/11 09:07:09;;;;;;;;;;;;;;;26.07;40.78;92191.16;4914172;29;7120;-43
2024/02/11 09:09:41;;;;;;;;;;;;;;;26.14;40.19;92210.38;4910609;29;7468;-43
2024/02/11 09:12:10;;;;;;;;;;;;;;;26.16;39.82;92218.09;4911999;29;7648;-42
2024/02/11 09:14:38;;;;;;;;;;;;;;;26.12;40.05;92212.97;4914233;29;7225;-42
2024/02/11 09:17:07;;;;;;;;;;;;;;;26.17;40.42;92217.53;4917214;29;9065;-42
2024/02/11 09:19:35;;;;;;;;;;;;;;;26.19;40.06;92224.50;4901067;29;9072;-42
2024/02/11 09:22:05;;;;;;;;;;;;;;;26.16;39.97;92226.38;4903573;29;7263;-44
2024/02/11 09:24:41;;;;;;;;;;;;;;;26.20;40.70;92234.97;4910175;29;7028;-42
2024/02/11 09:27:25;;;;;;;;;;;;;;;26.22;39.94;92234.38;4937437;28;7340;-42
2024/02/11 09:30:11;;;;;;;;;;;;;;;26.20;40.04;92239.75;4971581;28;8788;-42
2024/02/11 09:32:38;;;;;;;;;;;;;;;26.21;40.49;92236.41;4957690;28;7336;-42
2024/02/11 09:35:09;;;;;;;;;;;;;;;26.20;40.48;92243.22;5036087;28;9245;-42
2024/02/11 09:37:48;;;;;;;;;;;;;;;26.22;40.02;92242.66;5066915;28;7389;-41
2024/02/11 09:40:26;;;;;;;;;;;;;;;26.24;40.19;92242.81;5045029;28;7938;-42
2024/02/11 09:43:05;;;;;;;;;;;;;;;26.26;40.70;92254.00;5081633;28;7233;-41
2024/02/11 09:45:35;;;;;;;;;;;;;;;26.25;40.78;92249.81;5079849;28;7224;-42
2024/02/11 09:48:05;;;;;;;;;;;;;;;26.26;40.79;92254.00;5075668;28;7265;-42
2024/02/11 09:50:39;;;;;;;;;;;;;;;26.28;39.90;92260.41;5048684;28;6963;-42
2024/02/11 09:53:07;;;;;;;;;;;;;;;26.22;40.59;92253.69;5055711;28;7263;-41
2024/02/11 09:55:38;;;;;;;;;;;;;;;26.14;40.17;92248.97;5056032;28;7177;-40
2024/02/11 09:58:05;;;;;;;;;;;;;;;26.16;40.01;92249.13;5054396;28;7625;-41
2024/02/11 10:00:31;;;;;;;;;;;;;;;26.21;40.58;92255.00;5064342;28;8646;-41
2024/02/11 10:03:07;;;;;;;;;;;;;;;26.20;40.37;92250.75;5078456;28;6976;-40
2024/02/11 10:06:22;;;;;;;;;;;;;;;26.21;40.00;92257.75;5054685;28;9199;-42
2024/02/11 10:08:49;;;;;;;;;;;;;;;26.20;40.38;92259.03;5021129;28;9269;-41
2024/02/11 10:11:18;;;;;;;;;;;;;;;26.25;40.44;92267.06;5002827;28;9132;-41
2024/02/11 10:13:44;;;;;;;;;;;;;;;26.24;40.37;92271.09;5021269;28;9092;-42
2024/02/11 10:16:12;;;;;;;;;;;;;;;26.24;40.01;92264.84;4994287;28;7850;-41
2024/02/11 10:18:41;;;;;;;;;;;;;;;26.29;39.89;92267.41;5007681;28;7225;-42
2024/02/11 10:21:35;;;;;;;;;;;;;;;26.32;39.94;92271.06;5011452;28;7263;-42
2024/02/11 10:24:09;;;;;;;;;;;;;;;26.33;39.71;92278.00;5036310;28;8880;-41
2024/02/11 10:26:36;;;;;;;;;;;;;;;26.33;40.23;92270.47;5041320;28;7177;-42
2024/02/11 10:29:04;;;;;;;;;;;;;;;26.33;39.76;92273.22;5005043;28;7925;-43
2024/02/11 10:31:31;;;;;;;;;;;;;;;26.32;40.34;92269.00;5026877;28;7722;-42
2024/02/11 10:34:00;;;;;;;;;;;;;;;26.33;39.74;92264.22;5011247;28;7792;-40
2024/02/11 10:36:35;;;;;;;;;;;;;;;26.34;40.02;92271.91;5004938;28;6988;-42
2024/02/11 10:39:11;;;;;;;;;;;;;;;26.34;39.71;92265.69;5006678;28;7010;-42
2024/02/11 10:41:53;;;;;;;;;;;;;;;26.33;40.17;92269.75;5002472;28;9086;-58
2024/02/11 10:44:20;;;;;;;;;;;;;;;26.35;40.33;92278.91;5016078;28;7281;-58
2024/02/11 10:46:52;;;;;;;;;;;;;;;26.32;40.27;92257.28;5071921;28;9035;-58
2024/02/11 10:49:31;;;;;;;;;;;;;;;26.30;40.44;92260.56;5069706;28;8728;-58
2024/02/11 10:52:05;;;;;;;;;;;;;;;26.30;40.67;92268.84;5069909;28;9835;-59
2024/02/11 10:54:41;;;;;;;;;;;;;;;26.31;40.40;92272.34;5077660;28;7007;-58
2024/02/11 10:57:19;;;;;;;;;;;;;;;26.33;41.09;92273.22;5054284;28;7006;-58
2024/02/11 11:00:20;;;;;;;;;;;;;;;26.35;40.45;92272.66;5056301;28;8744;-57
2024/02/11 11:02:52;;;;;;;;;;;;;;;26.36;40.32;92279.63;5007771;28;7181;-58
2024/02/11 11:05:36;;;;;;;;;;;;;;;26.36;40.15;92271.38;4997464;28;7381;-56
2024/02/11 11:08:23;;;;;;;;;;;;;;;26.37;40.50;92275.56;4994224;28;7667;-56
2024/02/11 11:10:59;;;;;;;;;;;;;;;26.36;40.68;92282.41;5006599;28;7304;-57
2024/02/11 11:13:25;;;;;;;;;;;;;;;26.38;40.28;92279.81;5009034;28;9050;-57
2024/02/11 11:15:52;;;;;;;;;;;;;;;26.38;40.53;92279.81;5004579;28;6985;-58
2024/02/11 11:18:23;;;;;;;;;;;;;;;26.38;40.58;92283.28;4995667;28;7222;-58
2024/02/11 11:21:08;;;;;;;;;;;;;;;26.39;40.42;92284.00;5010110;28;7021;-56
2024/02/11 11:23:37;;;;;;;;;;;;;;;26.40;40.51;92279.97;4997458;28;7089;-58
2024/02/11 11:26:11;;;;;;;;;;;;;;;26.41;40.52;92278.66;4995293;28;9306;-57
2024/02/11 11:28:44;;;;;;;;;;;;;;;26.41;40.25;92275.91;5012575;28;9176;-57
2024/02/11 11:31:52;;;;;;;;;;;;;;;26.40;41.41;92274.44;4992075;28;7289;-57
2024/02/11 11:34:38;;;;;;;;;;;;;;;26.38;41.31;92263.97;5006805;28;6974;-57
2024/02/11 11:37:34;;;;;;;;;;;;;;;26.40;41.37;92263.44;5005337;28;7389;-57
2024/02/11 11:40:00;;;;;;;;;;;;;;;26.40;41.79;92266.19;5012851;28;8962;-57
2024/02/11 11:43:11;;;;;;;;;;;;;;;26.41;41.47;92275.91;5012885;28;7340;-57
2024/02/11 11:45:38;;;;;;;;;;;;;;;26.40;42.11;92266.19;4995364;28;7389;-57
2024/02/11 11:48:16;;;;;;;;;;;;;;;26.40;42.10;92263.44;5019876;28;7187;-57
2024/02/11 11:51:06;;;;;;;;;;;;;;;26.41;41.42;92273.13;5012252;28;7359;-57
2024/02/11 11:53:37;;;;;;;;;;;;;;;26.39;41.95;92272.97;5007150;28;7062;-57
2024/02/11 11:56:05;;;;;;;;;;;;;;;26.41;41.51;92270.38;4992291;28;8825;-57
2024/02/11 11:58:33;;;;;;;;;;;;;;;26.39;41.46;92268.19;5004431;28;7331;-57
2024/02/11 12:01:04;;;;;;;;;;;;;;;26.43;41.55;92271.28;5008391;28;6988;-57
2024/02/11 12:03:31;;;;;;;;;;;;;;;26.43;41.26;92260.25;5010331;28;7190;-56
2024/02/11 12:05:58;;;;;;;;;;;;;;;26.43;41.18;92267.78;5004302;28;7031;-55
2024/02/11 12:08:37;;;;;;;;;;;;;;;26.44;41.13;92269.25;5010018;28;9511;-56
2024/02/11 12:11:07;;;;;;;;;;;;;;;26.43;41.50;92274.03;5010751;28;7329;-56
2024/02/11 12:13:38;;;;;;;;;;;;;;;26.41;40.73;92271.13;5012059;28;7256;-56
2024/02/11 12:16:15;;;;;;;;;;;;;;;26.42;41.28;92269.09;5031253;28;8769;-55
2024/02/11 12:18:41;;;;;;;;;;;;;;;26.40;40.96;92268.94;5047308;28;7070;-56
2024/02/11 12:21:10;;;;;;;;;;;;;;;26.39;41.23;92268.19;5053948;28;7062;-55
2024/02/11 12:23:36;;;;;;;;;;;;;;;26.38;41.47;92272.25;5067395;28;6992;-55
2024/02/11 12:26:04;;;;;;;;;;;;;;;26.41;41.13;92281.41;5071349;28;7301;-56
2024/02/11 12:28:32;;;;;;;;;;;;;;;26.41;41.30;92273.13;5069726;28;7116;-55
2024/02/11 12:31:10;;;;;;;;;;;;;;;26.40;41.23;92274.44;5062488;28;7249;-55
2024/02/11 12:33:42;;;;;;;;;;;;;;;26.39;40.89;92270.97;5055566;28;9117;-56
2024/02/11 12:36:19;;;;;;;;;;;;;;;26.41;40.82;92273.88;5056782;28;9086;-55
2024/02/11 12:38:57;;;;;;;;;;;;;;;26.41;41.68;92278.66;5049814;28;8810;-55
2024/02/11 12:41:25;;;;;;;;;;;;;;;26.41;41.61;92271.13;5070469;28;9029;-56
2024/02/11 12:44:03;;;;;;;;;;;;;;;26.43;41.39;92278.81;5073528;28;7058;-55
2024/02/11 12:46:30;;;;;;;;;;;;;;;26.43;41.50;92273.31;5073442;28;7018;-55
2024/02/11 12:48:58;;;;;;;;;;;;;;;26.43;41.35;92273.31;5080279;28;7498;-55
2024/02/11 12:51:25;;;;;;;;;;;;;;;26.41;40.93;92268.38;5056442;28;6982;-56
2024/02/11 12:53:52;;;;;;;;;;;;;;;26.45;41.48;92267.94;5057783;28;7330;-55
2024/02/11 12:56:56;;;;;;;;;;;;;;;26.46;41.54;92267.41;5071728;28;6974;-56
2024/02/11 12:59:48;;;;;;;;;;;;;;;26.47;41.09;92268.13;5007494;28;7064;-56
2024/02/11 13:02:16;;;;;;;;;;;;;;;26.44;41.52;92264.47;4961929;28;7221;-56
2024/02/11 13:04:43;;;;;;;;;;;;;;;26.47;40.89;92273.66;5008650;28;7133;-55
2024/02/11 13:07:09;;;;;;;;;;;;;;;26.47;41.60;92265.38;5012959;28;7203;-55
2024/02/11 13:09:35;;;;;;;;;;;;;;;26.47;41.57;92262.63;4994798;28;6988;-55
2024/02/11 13:12:04;;;;;;;;;;;;;;;26.44;41.26;92258.97;5012467;28;7058;-55
2024/02/11 13:14:32;;;;;;;;;;;;;;;26.45;41.42;92263.19;4996035;28;7009;-55
2024/02/11 13:16:59;;;;;;;;;;;;;;;26.48;40.96;92266.81;5005600;28;9184;-55
2024/02/11 13:19:25;;;;;;;;;;;;;;;26.50;40.68;92264.97;4986482;28;9016;-55
2024/02/11 13:21:54;;;;;;;;;;;;;;;26.49;40.84;92268.31;5007665;28;7218;-56
2024/02/11 13:24:19;;;;;;;;;;;;;;;26.48;40.84;92253.78;5002302;28;7230;-56
2024/02/11 13:26:45;;;;;;;;;;;;;;;26.48;40.63;92259.28;5006420;28;8410;-55
2024/02/11 13:29:12;;;;;;;;;;;;;;;26.52;41.31;92264.41;5019540;28;8873;-55
2024/02/11 13:31:41;;;;;;;;;;;;;;;26.49;40.85;92252.47;5064051;28;7260;-55
2024/02/11 13:34:08;;;;;;;;;;;;;;;26.54;40.87;92257.03;5058530;28;7273;-56